63452 station(s) have been heard in the last 24 hours.

<< 502 503 504 505 506 507 508 >>
  Name/Id Latest heard Comment/Other Map
Symbol SM7MDO-Y 1788401453 70cm MMDVM Voice (C4FM) 434.47500MHz -0.0000MHz, APRS for YSFGateway Map
Symbol F4CYQ-10 1788401453 GaS: 159.97Kohms 144.975 RRF/RI49 (APRS LoRa Landes 40) Map
Symbol DO1EPM-10 1788401453 LoRa APRS iGate Warstein Map
Symbol BR7IAB-10 1788401452 LM0A 13.6V 36C Map
Symbol VK4KLL-3 1788401452 Map
Symbol EB1GOD-1 1788401452 LoRa APRS Meteo_ La galea , Vegadeo Batt=4.23V Ext=12.22V Map
Symbol NG7O-C 1788401452 2m Voice (D-Star) 145.52000MHz +0.0000MHz Map
Symbol LU7DBL 1788401452 Radio Club Bahia Blanca 73. Map
Symbol TK5ZCV-10 1788401452 TCP/IP Gateway Corsica {UIV32N} Map
Symbol W4V/LX016 1788401452 SOTA activ. planned on 20260905 1430z Map
Symbol PY1REI C 1788401452 2m Voice (D-Star) 146.61000MHz +0.0000MHz Map
Symbol KI5FUN-B 1788401452 70cm Voice (D-Star) 439.00000MHz -5.0000MHz Map
Symbol YM3KCN-4 1788401452 LoRa Digi on 433.775MHz Temp: 23.24C, Humid:76.27%, Batt: 3.78V, Solar: 0.00V DigiPcktC:14 Map
Symbol M7AMC-D 1788401452 70cm MMDVM Voice (DMR) 438.80000MHz +0.0000MHz, APRS for DMRGateway Map
Symbol CX7CXX-R 1788401452 70cm MMDVM Voice (NXDN) 432.62500MHz +5.0000MHz, CX7CXX_Pi-Star_RPT Map
Symbol JE6MIQ-13 1788401452 karatSu SAGA wx i-gate digi sta 50wGP Map
Symbol HS3LIQ-J 1788401452 2m Voice (D-Star) 145.50000MHz +0.0000MHz Map
Symbol N3MAW-B 1788401452 70cm Voice (D-Star) 445.95000MHz +0.0000MHz Map
Symbol DL3QP-R 1788401452 440 MMDVM Voice 439.40000MHz -7.6000MHz, DL3QP_Pi-Star Map
Symbol F5HCC-7 1788401452 Map
Symbol IQ6RS-10 1788401452 GATEWAY Map
Symbol DH1CG-3 1788401452 Map
Symbol DO2AX-N 1788401452 70cm MMDVM Voice (C4FM) 433.60000MHz +0.0000MHz, DO2AX_Pi-Star_ND Map
Symbol DL9YFF-D 1788401452 70cm MMDVM Voice (DMR) 433.48750MHz +0.0000MHz, APRS for DMRGateway Map
Symbol AF1M-B 1788401452 70cm Voice (D-Star) 432.07500MHz +0.0000MHz Map
Symbol NG7O C 1788401452 2m Voice (D-Star) 145.52000MHz +0.0000MHz Map
Symbol DK9NCX-10 1788401452 LoRa APRS IGate Map
Symbol DG8RCL-14 1788401451 ELW Amberg 1-12-1 +4996218979140 Map
Symbol BTR 1788401451 KD5QZD BTR Digi Map
Symbol F1ZIN-4 1788401451 DIGI APRS report to SYSOP: F4FUS Map
Symbol OZ1LLL-B 1788401451 70cm Voice (D-Star) 433.40000MHz +0.0000MHz, APRS for ircDDBGateway Map
Symbol CRMCtr 1788401451 Capital Reg Medical Center Map
Symbol KB7CQT B 1788401451 70cm Voice (D-Star) 438.55000MHz +0.0000MHz Map
Symbol OE1XDS-B 1788401451 440 Voice 438.52500MHz -7.6000MHz Map
Symbol GB7PB C 1788401451 2m Voice 145.6625 -0.6 MHz Map
Symbol N0WFC-7 1788401451 Hank - N0WFC Map
Symbol F1ZTQ-4 1788401451 Digipeater LoRa de Forcalquier Map
Symbol W8WRR B 1788401451 70cm Voice (D-Star) 443.35000MHz +0.0000MHz Map
Symbol EA1P-10 1788401451 Lora iGate P=4.26V Map
Symbol SP1XNE-B 1788401451 440 Voice 430,57500MHz +0,0000MHz Map
Symbol YM4VUS B 1788401451 70cm Voice (D-Star) 432.32500MHz +0.0000MHz Map
Symbol IZ5IOM-11 1788401451 B=100/N19 Map
Symbol NA9X-10 1788401451 Map
Symbol OK0DHD-C 1788401451 Powered by WPSD (https://wpsd.radio) Map
Symbol M7YBS-10 1788401451 LoRa APRS iGATE (439.9125MHz, BW 125 kHZ, SF 12) Map
Symbol DM6CS-12 1788401451 #DM6CS-10/B=084 Map
Symbol K0OQL B 1788401451 70cm Voice (D-Star) 442.00000MHz +5.0000MHz Map
Symbol JP7YFD-I 1788401451 JP7YFD Minamisouma D-STAR -> APRS Map
Symbol IW6NFT-M 1788401450 70cm Voice (D-Star) 432.32500MHz +0.0000MHz Map
Symbol IW2KYV 1788401450 Op.Marco - Milano {UIV32N} Map